ACA304 CYVR-CYUL
Flight info
| Callsign | ACA304 |
|---|---|
| Flight time | 4h 10m |
| Altitude | 35000 |
| Route | ALNOD DCT IKNIX DCT 49N110W DCT HML/N0486F370 DCT AGLIN DCT BEMOG LFLER7 |
| Aircraft | B77W/H-SDE1E2E3FGHIJ2J3J4J5M1RWXY/LB1D1 |
Departure
| Time | 2026-05-05 03:27 |
|---|---|
| Airport | Vancouver International Airport (CYVR) |
Arrival
| Time | 2026-05-05 07:38 |
|---|---|
| Airport | Montreal / Pierre Elliott Trudeau International Airport (CYUL) |
| Time | Latitude | Longitude | Altitude | Speed | Heading |
|---|---|---|---|---|---|
| 2026-05-05 03:04 | 49.19621 | -123.18291 | 14 ft | 0 kts | 199° |
| 2026-05-05 03:17 | 49.19626 | -123.18289 | 24 ft | 3 kts | 199° |
| 2026-05-05 03:17 | 49.19644 | -123.18279 | 15 ft | 3 kts | 199° |
| 2026-05-05 03:17 | 49.19662 | -123.18270 | 16 ft | 3 kts | 199° |
| 2026-05-05 03:17 | 49.19679 | -123.18260 | 16 ft | 3 kts | 199° |
| 2026-05-05 03:18 | 49.19688 | -123.18255 | 16 ft | 0 kts | 199° |
| 2026-05-05 03:20 | 49.19688 | -123.18256 | 16 ft | 0 kts | 199° |
| 2026-05-05 03:20 | 49.19682 | -123.18267 | 16 ft | 2 kts | 238° |
| 2026-05-05 03:20 | 49.19685 | -123.18300 | 15 ft | 4 kts | 278° |
| 2026-05-05 03:20 | 49.19690 | -123.18344 | 15 ft | 4 kts | 279° |
| 2026-05-05 03:21 | 49.19695 | -123.18394 | 16 ft | 5 kts | 279° |
| 2026-05-05 03:21 | 49.19702 | -123.18456 | 14 ft | 7 kts | 279° |
| 2026-05-05 03:21 | 49.19713 | -123.18529 | 15 ft | 8 kts | 296° |
| 2026-05-05 03:21 | 49.19742 | -123.18641 | 14 ft | 12 kts | 281° |
| 2026-05-05 03:22 | 49.19758 | -123.18770 | 14 ft | 12 kts | 280° |
| 2026-05-05 03:22 | 49.19774 | -123.18900 | 14 ft | 12 kts | 279° |
| 2026-05-05 03:22 | 49.19787 | -123.19030 | 14 ft | 12 kts | 275° |
| 2026-05-05 03:22 | 49.19740 | -123.19129 | 14 ft | 13 kts | 204° |
| 2026-05-05 03:23 | 49.19654 | -123.19156 | 14 ft | 13 kts | 190° |
| 2026-05-05 03:23 | 49.19569 | -123.19180 | 14 ft | 13 kts | 190° |
| 2026-05-05 03:23 | 49.19483 | -123.19203 | 14 ft | 13 kts | 190° |
| 2026-05-05 03:23 | 49.19397 | -123.19227 | 14 ft | 13 kts | 190° |
| 2026-05-05 03:24 | 49.19329 | -123.19300 | 13 ft | 13 kts | 247° |
| 2026-05-05 03:24 | 49.19309 | -123.19437 | 15 ft | 13 kts | 259° |
| 2026-05-05 03:24 | 49.19292 | -123.19574 | 14 ft | 13 kts | 259° |
| 2026-05-05 03:24 | 49.19274 | -123.19712 | 14 ft | 13 kts | 259° |
| 2026-05-05 03:25 | 49.19257 | -123.19850 | 14 ft | 13 kts | 260° |
| 2026-05-05 03:25 | 49.19238 | -123.20001 | 14 ft | 16 kts | 259° |
| 2026-05-05 03:25 | 49.19215 | -123.20187 | 14 ft | 19 kts | 259° |
| 2026-05-05 03:25 | 49.19180 | -123.20381 | 15 ft | 19 kts | 230° |
| 2026-05-05 03:26 | 49.19055 | -123.20442 | 16 ft | 19 kts | 188° |
| 2026-05-05 03:26 | 49.18964 | -123.20360 | 15 ft | 9 kts | 108° |
| 2026-05-05 03:26 | 49.18952 | -123.20261 | 16 ft | 27 kts | 100° |
| 2026-05-05 03:26 | 49.18873 | -123.19577 | 15 ft | 97 kts | 100° |
| 2026-05-05 03:27 | 49.18721 | -123.18242 | 14 ft | 158 kts | 99° |
| 2026-05-05 03:27 | 49.18502 | -123.16376 | 254 ft | 188 kts | 100° |
| 2026-05-05 03:27 | 49.18267 | -123.14356 | 725 ft | 204 kts | 100° |
| 2026-05-05 03:27 | 49.18024 | -123.12216 | 1563 ft | 199 kts | 100° |
| 2026-05-05 03:28 | 49.17816 | -123.10070 | 2083 ft | 219 kts | 97° |
| 2026-05-05 03:28 | 49.17641 | -123.07564 | 2325 ft | 255 kts | 96° |
| 2026-05-05 03:28 | 49.17450 | -123.04781 | 2998 ft | 269 kts | 96° |
| 2026-05-05 03:28 | 49.17244 | -123.01914 | 3961 ft | 273 kts | 96° |
| 2026-05-05 03:29 | 49.17027 | -122.99000 | 4908 ft | 279 kts | 96° |
| 2026-05-05 03:29 | 49.16809 | -122.96205 | 5813 ft | 282 kts | 96° |
| 2026-05-05 03:29 | 49.16571 | -122.93222 | 6812 ft | 283 kts | 96° |
| 2026-05-05 03:29 | 49.16328 | -122.90239 | 7798 ft | 284 kts | 96° |
| 2026-05-05 03:30 | 49.16079 | -122.87225 | 8766 ft | 285 kts | 95° |
| 2026-05-05 03:30 | 49.15830 | -122.84249 | 9729 ft | 287 kts | 95° |
| 2026-05-05 03:30 | 49.15574 | -122.81212 | 10524 ft | 293 kts | 95° |
| 2026-05-05 03:30 | 49.15304 | -122.77995 | 10862 ft | 319 kts | 95° |
| 2026-05-05 03:31 | 49.15009 | -122.74485 | 11078 ft | 347 kts | 95° |
| 2026-05-05 03:31 | 49.14688 | -122.70683 | 11365 ft | 372 kts | 95° |
| 2026-05-05 03:31 | 49.14342 | -122.66695 | 12065 ft | 383 kts | 95° |
| 2026-05-05 03:31 | 49.13985 | -122.62615 | 12879 ft | 391 kts | 95° |
| 2026-05-05 03:32 | 49.13622 | -122.58484 | 13788 ft | 396 kts | 95° |
| 2026-05-05 03:32 | 49.13252 | -122.54285 | 14616 ft | 400 kts | 95° |
| 2026-05-05 03:32 | 49.12881 | -122.50091 | 15453 ft | 405 kts | 94° |
| 2026-05-05 03:32 | 49.12502 | -122.45802 | 16266 ft | 410 kts | 94° |
| 2026-05-05 03:33 | 49.12117 | -122.41457 | 17059 ft | 416 kts | 94° |
| 2026-05-05 03:33 | 49.11725 | -122.37057 | 17848 ft | 421 kts | 94° |
| 2026-05-05 03:33 | 49.11325 | -122.32589 | 18569 ft | 427 kts | 94° |
| 2026-05-05 03:33 | 49.10920 | -122.28077 | 19276 ft | 431 kts | 94° |
| 2026-05-05 03:34 | 49.10508 | -122.23528 | 19996 ft | 435 kts | 93° |
| 2026-05-05 03:34 | 49.10091 | -122.18944 | 20704 ft | 439 kts | 93° |
| 2026-05-05 03:34 | 49.09667 | -122.14298 | 21375 ft | 443 kts | 93° |
| 2026-05-05 03:34 | 49.09241 | -122.09629 | 22021 ft | 447 kts | 93° |
| 2026-05-05 03:35 | 49.08808 | -122.04909 | 22641 ft | 452 kts | 92° |
| 2026-05-05 03:35 | 49.08366 | -122.00136 | 23277 ft | 456 kts | 92° |
| 2026-05-05 03:35 | 49.07916 | -121.95328 | 23817 ft | 460 kts | 92° |
| 2026-05-05 03:35 | 49.07470 | -121.90524 | 24361 ft | 464 kts | 92° |
| 2026-05-05 03:36 | 49.07013 | -121.85629 | 24928 ft | 468 kts | 92° |
| 2026-05-05 03:36 | 49.06547 | -121.80690 | 25481 ft | 471 kts | 92° |
| 2026-05-05 03:36 | 49.06076 | -121.75712 | 26003 ft | 475 kts | 92° |
| 2026-05-05 03:36 | 49.05615 | -121.70728 | 26553 ft | 477 kts | 91° |
| 2026-05-05 03:37 | 49.05403 | -121.65670 | 27027 ft | 477 kts | 85° |
| 2026-05-05 03:37 | 49.05497 | -121.60628 | 27544 ft | 475 kts | 79° |
| 2026-05-05 03:37 | 49.05902 | -121.55627 | 28009 ft | 475 kts | 76° |
| 2026-05-05 03:37 | 49.06381 | -121.50613 | 28424 ft | 478 kts | 76° |
| 2026-05-05 03:38 | 49.06872 | -121.45589 | 28847 ft | 481 kts | 76° |
| 2026-05-05 03:38 | 49.07363 | -121.40510 | 29244 ft | 485 kts | 76° |
| 2026-05-05 03:38 | 49.07841 | -121.35414 | 29686 ft | 486 kts | 76° |
| 2026-05-05 03:38 | 49.08306 | -121.30377 | 30185 ft | 486 kts | 76° |
| 2026-05-05 03:39 | 49.08764 | -121.25293 | 30706 ft | 483 kts | 76° |
| 2026-05-05 03:39 | 49.09215 | -121.20214 | 31212 ft | 481 kts | 76° |
| 2026-05-05 03:39 | 49.09661 | -121.15164 | 31715 ft | 480 kts | 76° |
| 2026-05-05 03:39 | 49.10104 | -121.10127 | 32191 ft | 479 kts | 76° |
| 2026-05-05 03:40 | 49.10544 | -121.05084 | 32731 ft | 478 kts | 76° |
| 2026-05-05 03:40 | 49.10982 | -121.00065 | 33184 ft | 477 kts | 75° |
| 2026-05-05 03:40 | 49.11419 | -120.95048 | 33575 ft | 476 kts | 76° |
| 2026-05-05 03:40 | 49.11853 | -120.90046 | 33994 ft | 476 kts | 75° |
| 2026-05-05 03:41 | 49.12284 | -120.85027 | 34317 ft | 475 kts | 75° |
| 2026-05-05 03:41 | 49.12713 | -120.80024 | 34642 ft | 475 kts | 75° |
| 2026-05-05 03:41 | 49.13140 | -120.75023 | 34820 ft | 478 kts | 75° |
| 2026-05-05 03:41 | 49.13564 | -120.70050 | 34862 ft | 479 kts | 75° |
| 2026-05-05 03:42 | 49.14406 | -120.59981 | 34874 ft | 473 kts | 75° |
| 2026-05-05 03:42 | 49.15230 | -120.50055 | 34882 ft | 471 kts | 75° |
| 2026-05-05 03:43 | 49.16050 | -120.40111 | 34893 ft | 471 kts | 75° |
| 2026-05-05 03:43 | 49.16858 | -120.30155 | 34848 ft | 472 kts | 75° |
| 2026-05-05 03:44 | 49.17660 | -120.20208 | 34887 ft | 471 kts | 75° |
| 2026-05-05 03:44 | 49.18454 | -120.10242 | 34891 ft | 472 kts | 75° |
| 2026-05-05 03:45 | 49.19236 | -120.00321 | 34861 ft | 474 kts | 75° |
| 2026-05-05 03:45 | 49.20021 | -119.90253 | 34862 ft | 475 kts | 75° |
| 2026-05-05 03:46 | 49.20786 | -119.80277 | 34841 ft | 475 kts | 75° |
| 2026-05-05 03:46 | 49.21545 | -119.70276 | 34840 ft | 472 kts | 75° |
| 2026-05-05 03:47 | 49.22293 | -119.60313 | 34834 ft | 471 kts | 74° |
| 2026-05-05 03:47 | 49.23032 | -119.50380 | 34842 ft | 469 kts | 74° |
| 2026-05-05 03:48 | 49.23757 | -119.40483 | 34844 ft | 468 kts | 74° |
| 2026-05-05 03:48 | 49.24480 | -119.30551 | 34842 ft | 468 kts | 74° |
| 2026-05-05 03:49 | 49.25088 | -119.20661 | 34842 ft | 474 kts | 78° |
| 2026-05-05 03:49 | 49.25224 | -119.10540 | 34851 ft | 476 kts | 79° |
| 2026-05-05 03:50 | 49.25295 | -119.00427 | 34861 ft | 476 kts | 79° |
| 2026-05-05 03:50 | 49.25376 | -118.90299 | 34856 ft | 474 kts | 79° |
| 2026-05-05 03:51 | 49.25450 | -118.81911 | 34863 ft | 475 kts | 79° |
| 2026-05-05 03:51 | 49.25558 | -118.70106 | 34848 ft | 475 kts | 79° |
| 2026-05-05 03:52 | 49.25627 | -118.61675 | 34870 ft | 476 kts | 79° |
| 2026-05-05 03:52 | 49.25703 | -118.51541 | 34860 ft | 475 kts | 78° |
| 2026-05-05 03:53 | 49.25762 | -118.41422 | 34877 ft | 475 kts | 78° |
| 2026-05-05 03:53 | 49.25814 | -118.31294 | 34839 ft | 474 kts | 78° |
| 2026-05-05 03:54 | 49.25857 | -118.21263 | 34861 ft | 473 kts | 78° |
| 2026-05-05 03:54 | 49.25897 | -118.11161 | 34852 ft | 474 kts | 78° |
| 2026-05-05 03:55 | 49.25924 | -118.01071 | 34855 ft | 473 kts | 78° |
| 2026-05-05 03:55 | 49.25943 | -117.91008 | 34855 ft | 472 kts | 78° |
| 2026-05-05 03:56 | 49.25953 | -117.80944 | 34854 ft | 473 kts | 78° |
| 2026-05-05 03:56 | 49.25956 | -117.70859 | 34852 ft | 475 kts | 78° |
| 2026-05-05 03:57 | 49.25947 | -117.60785 | 34852 ft | 475 kts | 78° |
| 2026-05-05 03:57 | 49.25929 | -117.50702 | 34852 ft | 473 kts | 78° |
| 2026-05-05 03:58 | 49.25910 | -117.40627 | 34862 ft | 474 kts | 78° |
| 2026-05-05 03:58 | 49.25877 | -117.30530 | 34870 ft | 472 kts | 79° |
| 2026-05-05 03:59 | 49.25828 | -117.20573 | 34893 ft | 467 kts | 78° |
| 2026-05-05 03:59 | 49.25778 | -117.10609 | 34932 ft | 468 kts | 78° |
| 2026-05-05 04:00 | 49.25726 | -117.00587 | 34930 ft | 472 kts | 79° |
| 2026-05-05 04:00 | 49.25657 | -116.90536 | 34889 ft | 475 kts | 79° |
| 2026-05-05 04:01 | 49.25559 | -116.80482 | 34900 ft | 474 kts | 79° |
| 2026-05-05 04:01 | 49.25499 | -116.70362 | 34946 ft | 474 kts | 79° |
| 2026-05-05 04:02 | 49.25409 | -116.60196 | 34943 ft | 480 kts | 79° |
| 2026-05-05 04:02 | 49.25299 | -116.49938 | 34949 ft | 482 kts | 79° |
| 2026-05-05 04:03 | 49.25180 | -116.39731 | 34952 ft | 482 kts | 79° |
| 2026-05-05 04:03 | 49.25056 | -116.29511 | 34952 ft | 477 kts | 79° |
| 2026-05-05 04:04 | 49.24920 | -116.19373 | 34975 ft | 475 kts | 79° |
| 2026-05-05 04:04 | 49.24773 | -116.09273 | 34999 ft | 473 kts | 80° |
| 2026-05-05 04:05 | 49.24626 | -115.99282 | 35006 ft | 473 kts | 79° |
| 2026-05-05 04:05 | 49.24483 | -115.89194 | 35004 ft | 475 kts | 79° |
| 2026-05-05 04:06 | 49.24318 | -115.79071 | 35020 ft | 476 kts | 80° |
| 2026-05-05 04:06 | 49.24136 | -115.68955 | 35036 ft | 475 kts | 80° |
| 2026-05-05 04:07 | 49.23956 | -115.58807 | 35048 ft | 478 kts | 80° |
| 2026-05-05 04:07 | 49.23766 | -115.48671 | 35036 ft | 480 kts | 80° |
| 2026-05-05 04:08 | 49.23561 | -115.38442 | 35044 ft | 481 kts | 80° |
| 2026-05-05 04:08 | 49.23346 | -115.28202 | 35061 ft | 481 kts | 81° |
| 2026-05-05 04:09 | 49.23124 | -115.18025 | 35060 ft | 481 kts | 81° |
| 2026-05-05 04:09 | 49.22893 | -115.07800 | 35077 ft | 481 kts | 81° |
| 2026-05-05 04:10 | 49.22656 | -114.97563 | 35071 ft | 483 kts | 81° |
| 2026-05-05 04:10 | 49.22397 | -114.87313 | 35074 ft | 482 kts | 81° |
| 2026-05-05 04:11 | 49.22142 | -114.77136 | 35111 ft | 474 kts | 81° |
| 2026-05-05 04:11 | 49.21888 | -114.67033 | 35122 ft | 476 kts | 81° |
| 2026-05-05 04:12 | 49.21614 | -114.56872 | 35138 ft | 480 kts | 81° |
| 2026-05-05 04:12 | 49.21329 | -114.46656 | 35133 ft | 485 kts | 82° |
| 2026-05-05 04:13 | 49.21033 | -114.36329 | 35124 ft | 487 kts | 82° |
| 2026-05-05 04:13 | 49.20728 | -114.25968 | 35168 ft | 489 kts | 82° |
| 2026-05-05 04:14 | 49.20403 | -114.15549 | 35153 ft | 490 kts | 82° |
| 2026-05-05 04:14 | 49.20071 | -114.05140 | 35140 ft | 489 kts | 82° |
| 2026-05-05 04:15 | 49.19733 | -113.94888 | 35170 ft | 483 kts | 82° |
| 2026-05-05 04:15 | 49.19397 | -113.84589 | 35159 ft | 484 kts | 82° |
| 2026-05-05 04:16 | 49.19051 | -113.74299 | 35155 ft | 486 kts | 83° |
| 2026-05-05 04:16 | 49.18690 | -113.63953 | 35155 ft | 488 kts | 83° |
| 2026-05-05 04:17 | 49.18317 | -113.53577 | 35144 ft | 490 kts | 83° |
| 2026-05-05 04:17 | 49.17935 | -113.43228 | 35142 ft | 491 kts | 83° |
| 2026-05-05 04:18 | 49.17540 | -113.32791 | 35132 ft | 492 kts | 84° |
| 2026-05-05 04:18 | 49.17136 | -113.22342 | 35135 ft | 493 kts | 84° |
| 2026-05-05 04:19 | 49.16722 | -113.11869 | 35133 ft | 493 kts | 84° |
| 2026-05-05 04:19 | 49.16298 | -113.01406 | 35139 ft | 493 kts | 84° |
| 2026-05-05 04:20 | 49.15865 | -112.90953 | 35141 ft | 493 kts | 84° |
| 2026-05-05 04:20 | 49.15426 | -112.80565 | 35148 ft | 494 kts | 85° |
| 2026-05-05 04:21 | 49.14974 | -112.70069 | 35151 ft | 494 kts | 85° |
| 2026-05-05 04:21 | 49.14510 | -112.59571 | 35164 ft | 495 kts | 85° |
| 2026-05-05 04:22 | 49.14038 | -112.49071 | 35152 ft | 496 kts | 85° |
| 2026-05-05 04:22 | 49.13555 | -112.38547 | 35166 ft | 497 kts | 85° |
| 2026-05-05 04:23 | 49.13066 | -112.28090 | 35174 ft | 498 kts | 86° |
| 2026-05-05 04:23 | 49.12560 | -112.17510 | 35176 ft | 500 kts | 86° |
| 2026-05-05 04:24 | 49.12044 | -112.06906 | 35177 ft | 501 kts | 86° |
| 2026-05-05 04:25 | 49.11249 | -111.90953 | 35167 ft | 503 kts | 86° |
| 2026-05-05 04:25 | 49.10704 | -111.80288 | 35175 ft | 504 kts | 87° |
| 2026-05-05 04:26 | 49.10148 | -111.69590 | 35164 ft | 506 kts | 87° |
| 2026-05-05 04:26 | 49.09581 | -111.58876 | 35169 ft | 506 kts | 87° |
| 2026-05-05 04:27 | 49.09007 | -111.48213 | 35172 ft | 507 kts | 87° |
| 2026-05-05 04:27 | 49.08420 | -111.37492 | 35165 ft | 507 kts | 88° |
| 2026-05-05 04:28 | 49.07822 | -111.26749 | 35161 ft | 508 kts | 88° |
| 2026-05-05 04:28 | 49.07214 | -111.16003 | 35169 ft | 509 kts | 88° |
| 2026-05-05 04:29 | 49.06594 | -111.05242 | 35158 ft | 509 kts | 88° |
| 2026-05-05 04:29 | 49.05969 | -110.94556 | 35157 ft | 509 kts | 88° |
| 2026-05-05 04:30 | 49.05328 | -110.83785 | 35155 ft | 510 kts | 88° |
| 2026-05-05 04:30 | 49.04676 | -110.73004 | 35147 ft | 510 kts | 89° |
| 2026-05-05 04:31 | 49.04015 | -110.62231 | 35142 ft | 510 kts | 89° |
| 2026-05-05 04:31 | 49.03344 | -110.51444 | 35159 ft | 510 kts | 89° |
| 2026-05-05 04:32 | 49.02667 | -110.40742 | 35141 ft | 511 kts | 89° |
| 2026-05-05 04:32 | 49.01975 | -110.29938 | 35242 ft | 515 kts | 89° |
| 2026-05-05 04:32 | 49.01623 | -110.24507 | 35535 ft | 515 kts | 89° |
| 2026-05-05 04:33 | 49.01267 | -110.19081 | 35903 ft | 513 kts | 90° |
| 2026-05-05 04:33 | 49.00911 | -110.13676 | 36270 ft | 511 kts | 90° |
| 2026-05-05 04:33 | 49.00554 | -110.08286 | 36620 ft | 510 kts | 90° |
| 2026-05-05 04:33 | 49.00206 | -110.02907 | 36904 ft | 509 kts | 89° |
| 2026-05-05 04:34 | 49.00057 | -109.97538 | 37071 ft | 507 kts | 83° |
| 2026-05-05 04:34 | 49.00487 | -109.86811 | 37137 ft | 507 kts | 79° |
| 2026-05-05 04:35 | 49.01020 | -109.76138 | 37127 ft | 502 kts | 80° |
| 2026-05-05 04:35 | 49.01509 | -109.65607 | 37137 ft | 501 kts | 80° |
| 2026-05-05 04:36 | 49.01966 | -109.55013 | 37136 ft | 501 kts | 80° |
| 2026-05-05 04:36 | 49.02402 | -109.44421 | 37143 ft | 501 kts | 81° |
| 2026-05-05 04:37 | 49.02829 | -109.33783 | 37129 ft | 503 kts | 81° |
| 2026-05-05 04:37 | 49.03248 | -109.23135 | 37138 ft | 505 kts | 81° |
| 2026-05-05 04:38 | 49.03660 | -109.12440 | 37120 ft | 506 kts | 81° |
| 2026-05-05 04:38 | 49.03997 | -109.03516 | 37139 ft | 508 kts | 81° |
| 2026-05-05 04:39 | 49.04393 | -108.92748 | 37117 ft | 509 kts | 81° |
| 2026-05-05 04:39 | 49.04780 | -108.81952 | 37127 ft | 510 kts | 82° |
| 2026-05-05 04:40 | 49.05157 | -108.71136 | 37123 ft | 511 kts | 82° |
| 2026-05-05 04:40 | 49.05524 | -108.60330 | 37129 ft | 511 kts | 82° |
| 2026-05-05 04:41 | 49.05881 | -108.49501 | 37122 ft | 511 kts | 82° |
| 2026-05-05 04:41 | 49.06228 | -108.38684 | 37133 ft | 510 kts | 82° |
| 2026-05-05 04:42 | 49.06564 | -108.27936 | 37125 ft | 510 kts | 82° |
| 2026-05-05 04:42 | 49.06891 | -108.17107 | 37125 ft | 511 kts | 82° |
| 2026-05-05 04:43 | 49.07209 | -108.06270 | 37121 ft | 511 kts | 82° |
| 2026-05-05 04:43 | 49.07515 | -107.95452 | 37126 ft | 511 kts | 82° |
| 2026-05-05 04:43 | 49.07665 | -107.90032 | 37396 ft | 511 kts | 83° |
| 2026-05-05 04:44 | 49.07812 | -107.84625 | 37271 ft | 509 kts | 83° |
| 2026-05-05 04:44 | 49.08090 | -107.73989 | 37138 ft | 500 kts | 83° |
| 2026-05-05 04:45 | 49.08360 | -107.63433 | 37125 ft | 500 kts | 83° |
| 2026-05-05 04:45 | 49.08630 | -107.52717 | 37124 ft | 509 kts | 83° |
| 2026-05-05 04:46 | 49.08887 | -107.41925 | 37112 ft | 510 kts | 83° |
| 2026-05-05 04:46 | 49.09132 | -107.31104 | 37112 ft | 510 kts | 84° |
| 2026-05-05 04:47 | 49.09367 | -107.20283 | 37102 ft | 509 kts | 84° |
| 2026-05-05 04:47 | 49.09590 | -107.09569 | 37104 ft | 507 kts | 84° |
| 2026-05-05 04:48 | 49.09804 | -106.98819 | 37102 ft | 506 kts | 84° |
| 2026-05-05 04:48 | 49.10009 | -106.88090 | 37101 ft | 505 kts | 84° |
| 2026-05-05 04:49 | 49.10203 | -106.77388 | 37106 ft | 504 kts | 84° |
| 2026-05-05 04:49 | 49.10387 | -106.66695 | 37105 ft | 504 kts | 84° |
| 2026-05-05 04:50 | 49.10562 | -106.55995 | 37104 ft | 504 kts | 84° |
| 2026-05-05 04:50 | 49.10725 | -106.45384 | 37107 ft | 504 kts | 85° |
| 2026-05-05 04:51 | 49.10880 | -106.34665 | 37106 ft | 505 kts | 85° |
| 2026-05-05 04:51 | 49.11024 | -106.23950 | 37109 ft | 505 kts | 85° |
| 2026-05-05 04:52 | 49.11160 | -106.13210 | 37113 ft | 506 kts | 85° |
| 2026-05-05 04:52 | 49.11284 | -106.02516 | 37111 ft | 506 kts | 85° |
| 2026-05-05 04:53 | 49.11400 | -105.91704 | 37104 ft | 507 kts | 85° |
| 2026-05-05 04:53 | 49.11505 | -105.80982 | 37103 ft | 506 kts | 85° |
| 2026-05-05 04:54 | 49.11601 | -105.70226 | 37100 ft | 506 kts | 86° |
| 2026-05-05 04:54 | 49.11685 | -105.59467 | 37089 ft | 507 kts | 86° |
| 2026-05-05 04:55 | 49.11760 | -105.48709 | 37089 ft | 506 kts | 86° |
| 2026-05-05 04:55 | 49.11825 | -105.38026 | 37086 ft | 506 kts | 86° |
| 2026-05-05 04:56 | 49.11881 | -105.27262 | 37086 ft | 506 kts | 86° |
| 2026-05-05 04:56 | 49.11926 | -105.16512 | 37083 ft | 506 kts | 86° |
| 2026-05-05 04:57 | 49.11962 | -105.05753 | 37083 ft | 506 kts | 86° |
| 2026-05-05 04:57 | 49.11987 | -104.95094 | 37071 ft | 506 kts | 86° |
| 2026-05-05 04:58 | 49.12003 | -104.84323 | 37071 ft | 506 kts | 86° |
| 2026-05-05 04:58 | 49.12008 | -104.73568 | 37068 ft | 506 kts | 87° |
| 2026-05-05 04:59 | 49.12004 | -104.62808 | 37064 ft | 507 kts | 87° |
| 2026-05-05 04:59 | 49.11989 | -104.52036 | 37067 ft | 507 kts | 87° |
| 2026-05-05 05:00 | 49.11965 | -104.41341 | 37066 ft | 507 kts | 87° |
| 2026-05-05 05:00 | 49.11930 | -104.30563 | 37068 ft | 508 kts | 87° |
| 2026-05-05 05:01 | 49.11886 | -104.19764 | 37064 ft | 508 kts | 87° |
| 2026-05-05 05:01 | 49.11831 | -104.08974 | 37064 ft | 508 kts | 88° |
| 2026-05-05 05:02 | 49.11767 | -103.98246 | 37062 ft | 508 kts | 88° |
| 2026-05-05 05:02 | 49.11692 | -103.87439 | 37059 ft | 509 kts | 88° |
| 2026-05-05 05:03 | 49.11607 | -103.76632 | 37060 ft | 509 kts | 88° |
| 2026-05-05 05:03 | 49.11512 | -103.65824 | 37055 ft | 509 kts | 88° |
| 2026-05-05 05:04 | 49.11407 | -103.55015 | 37051 ft | 509 kts | 88° |
| 2026-05-05 05:04 | 49.11292 | -103.44212 | 37035 ft | 509 kts | 88° |
| 2026-05-05 05:05 | 49.11166 | -103.33398 | 37011 ft | 509 kts | 88° |
| 2026-05-05 05:05 | 49.11032 | -103.22644 | 36995 ft | 509 kts | 88° |
| 2026-05-05 05:06 | 49.10889 | -103.12050 | 36979 ft | 510 kts | 89° |
| 2026-05-05 05:06 | 49.10734 | -103.01224 | 36962 ft | 510 kts | 89° |
| 2026-05-05 05:07 | 49.10568 | -102.90389 | 36961 ft | 511 kts | 89° |
| 2026-05-05 05:07 | 49.10391 | -102.79538 | 36976 ft | 511 kts | 89° |
| 2026-05-05 05:08 | 49.10206 | -102.68750 | 36986 ft | 511 kts | 89° |
| 2026-05-05 05:08 | 49.10010 | -102.57901 | 36996 ft | 511 kts | 89° |
| 2026-05-05 05:09 | 49.09802 | -102.47038 | 37005 ft | 512 kts | 89° |
| 2026-05-05 05:09 | 49.09585 | -102.36160 | 37002 ft | 512 kts | 89° |
| 2026-05-05 05:10 | 49.09359 | -102.25362 | 36998 ft | 512 kts | 89° |
| 2026-05-05 05:10 | 49.09121 | -102.14499 | 36996 ft | 512 kts | 89° |
| 2026-05-05 05:11 | 49.08873 | -102.03643 | 36994 ft | 512 kts | 89° |
| 2026-05-05 05:11 | 49.08615 | -101.92770 | 36987 ft | 512 kts | 90° |
| 2026-05-05 05:12 | 49.08347 | -101.81910 | 36988 ft | 512 kts | 90° |
| 2026-05-05 05:12 | 49.08069 | -101.71067 | 36992 ft | 512 kts | 90° |
| 2026-05-05 05:13 | 49.07782 | -101.60272 | 36987 ft | 512 kts | 90° |
| 2026-05-05 05:13 | 49.07483 | -101.49408 | 36985 ft | 512 kts | 90° |
| 2026-05-05 05:14 | 49.07175 | -101.38561 | 36977 ft | 512 kts | 90° |
| 2026-05-05 05:14 | 49.06856 | -101.27718 | 36977 ft | 512 kts | 90° |
| 2026-05-05 05:15 | 49.06529 | -101.16937 | 36971 ft | 512 kts | 90° |
| 2026-05-05 05:15 | 49.06189 | -101.06078 | 36968 ft | 512 kts | 90° |
| 2026-05-05 05:16 | 49.05840 | -100.95237 | 36967 ft | 512 kts | 90° |
| 2026-05-05 05:16 | 49.05479 | -100.84353 | 36962 ft | 513 kts | 90° |
| 2026-05-05 05:17 | 49.05108 | -100.73480 | 36959 ft | 513 kts | 91° |
| 2026-05-05 05:17 | 49.04730 | -100.62679 | 36951 ft | 513 kts | 91° |
| 2026-05-05 05:18 | 49.04339 | -100.51819 | 36951 ft | 514 kts | 91° |
| 2026-05-05 05:18 | 49.03937 | -100.40938 | 36945 ft | 514 kts | 91° |
| 2026-05-05 05:19 | 49.03525 | -100.30042 | 36942 ft | 514 kts | 91° |
| 2026-05-05 05:19 | 49.03102 | -100.19162 | 36942 ft | 514 kts | 91° |
| 2026-05-05 05:20 | 49.02672 | -100.08337 | 36938 ft | 514 kts | 91° |
| 2026-05-05 05:20 | 49.02228 | -99.97451 | 36937 ft | 514 kts | 91° |
| 2026-05-05 05:21 | 49.01775 | -99.86568 | 36934 ft | 514 kts | 91° |
| 2026-05-05 05:21 | 49.01312 | -99.75690 | 36932 ft | 514 kts | 91° |
| 2026-05-05 05:22 | 49.00838 | -99.64808 | 36931 ft | 514 kts | 91° |
| 2026-05-05 05:22 | 49.00357 | -99.54013 | 36936 ft | 514 kts | 92° |
| 2026-05-05 05:23 | 48.99864 | -99.43153 | 36936 ft | 514 kts | 92° |
| 2026-05-05 05:23 | 48.99359 | -99.32272 | 36937 ft | 514 kts | 92° |
| 2026-05-05 05:24 | 48.98845 | -99.21410 | 36936 ft | 514 kts | 92° |
| 2026-05-05 05:24 | 48.98409 | -99.12374 | 36935 ft | 515 kts | 92° |
| 2026-05-05 05:25 | 48.97875 | -99.01500 | 36936 ft | 515 kts | 92° |
| 2026-05-05 05:25 | 48.97331 | -98.90626 | 36937 ft | 515 kts | 92° |
| 2026-05-05 05:26 | 48.96777 | -98.79746 | 36938 ft | 515 kts | 92° |
| 2026-05-05 05:26 | 48.96211 | -98.68856 | 36928 ft | 516 kts | 92° |
| 2026-05-05 05:27 | 48.95636 | -98.57981 | 36934 ft | 516 kts | 92° |
| 2026-05-05 05:27 | 48.94756 | -98.41704 | 36928 ft | 516 kts | 93° |
| 2026-05-05 05:28 | 48.94153 | -98.30804 | 36932 ft | 516 kts | 93° |
| 2026-05-05 05:28 | 48.93540 | -98.19900 | 36928 ft | 516 kts | 93° |
| 2026-05-05 05:29 | 48.92922 | -98.09080 | 36919 ft | 516 kts | 93° |
| 2026-05-05 05:29 | 48.92288 | -97.98191 | 36917 ft | 516 kts | 93° |
| 2026-05-05 05:30 | 48.91645 | -97.87304 | 36917 ft | 516 kts | 93° |
| 2026-05-05 05:30 | 48.90992 | -97.76421 | 36915 ft | 516 kts | 94° |
| 2026-05-05 05:31 | 48.90329 | -97.65548 | 36913 ft | 516 kts | 94° |
| 2026-05-05 05:31 | 48.89655 | -97.54668 | 36914 ft | 516 kts | 94° |
| 2026-05-05 05:32 | 48.88976 | -97.43870 | 36910 ft | 516 kts | 94° |
| 2026-05-05 05:32 | 48.88282 | -97.33002 | 36892 ft | 516 kts | 94° |
| 2026-05-05 05:33 | 48.87578 | -97.22122 | 36889 ft | 517 kts | 94° |
| 2026-05-05 05:33 | 48.86865 | -97.11255 | 36882 ft | 517 kts | 94° |
| 2026-05-05 05:34 | 48.86291 | -97.00434 | 36878 ft | 516 kts | 92° |
| 2026-05-05 05:34 | 48.85814 | -96.89556 | 36874 ft | 516 kts | 92° |
| 2026-05-05 05:35 | 48.85318 | -96.78667 | 36874 ft | 516 kts | 92° |
| 2026-05-05 05:35 | 48.84789 | -96.67774 | 36876 ft | 517 kts | 93° |
| 2026-05-05 05:36 | 48.84239 | -96.56898 | 36881 ft | 517 kts | 93° |
| 2026-05-05 05:36 | 48.83677 | -96.46017 | 36884 ft | 517 kts | 93° |
| 2026-05-05 05:37 | 48.83108 | -96.35138 | 36884 ft | 517 kts | 93° |
| 2026-05-05 05:37 | 48.82532 | -96.24331 | 36879 ft | 517 kts | 93° |
| 2026-05-05 05:38 | 48.81942 | -96.13437 | 36866 ft | 517 kts | 93° |
| 2026-05-05 05:38 | 48.81341 | -96.02548 | 36856 ft | 517 kts | 93° |
| 2026-05-05 05:39 | 48.80735 | -95.91744 | 36837 ft | 517 kts | 94° |
| 2026-05-05 05:39 | 48.80114 | -95.80873 | 36830 ft | 517 kts | 94° |
| 2026-05-05 05:40 | 48.79484 | -95.70006 | 36829 ft | 517 kts | 94° |
| 2026-05-05 05:40 | 48.78843 | -95.59143 | 36828 ft | 517 kts | 94° |
| 2026-05-05 05:41 | 48.78192 | -95.48272 | 36838 ft | 517 kts | 94° |
| 2026-05-05 05:41 | 48.77532 | -95.37426 | 36837 ft | 517 kts | 94° |
| 2026-05-05 05:42 | 48.76865 | -95.26644 | 36843 ft | 517 kts | 94° |
| 2026-05-05 05:42 | 48.76183 | -95.15792 | 36855 ft | 517 kts | 94° |
| 2026-05-05 05:43 | 48.75492 | -95.04943 | 36862 ft | 517 kts | 95° |
| 2026-05-05 05:43 | 48.74790 | -94.94102 | 36835 ft | 517 kts | 95° |
| 2026-05-05 05:44 | 48.74079 | -94.83267 | 36802 ft | 517 kts | 95° |
| 2026-05-05 05:44 | 48.73362 | -94.72505 | 36785 ft | 517 kts | 95° |
| 2026-05-05 05:45 | 48.72632 | -94.61699 | 36795 ft | 517 kts | 95° |
| 2026-05-05 05:45 | 48.71887 | -94.50825 | 36779 ft | 517 kts | 95° |
| 2026-05-05 05:46 | 48.71134 | -94.39984 | 36793 ft | 517 kts | 95° |
| 2026-05-05 05:46 | 48.70376 | -94.29230 | 36800 ft | 517 kts | 95° |
| 2026-05-05 05:47 | 48.69603 | -94.18395 | 36815 ft | 517 kts | 95° |
| 2026-05-05 05:47 | 48.68819 | -94.07557 | 36817 ft | 517 kts | 96° |
| 2026-05-05 05:48 | 48.68026 | -93.96746 | 36814 ft | 517 kts | 96° |
| 2026-05-05 05:48 | 48.67223 | -93.85937 | 36787 ft | 517 kts | 96° |
| 2026-05-05 05:49 | 48.66410 | -93.75128 | 36773 ft | 517 kts | 96° |
| 2026-05-05 05:49 | 48.65591 | -93.64379 | 36761 ft | 517 kts | 96° |
| 2026-05-05 05:50 | 48.64756 | -93.53555 | 36750 ft | 518 kts | 96° |
| 2026-05-05 05:50 | 48.63911 | -93.42728 | 36741 ft | 518 kts | 96° |
| 2026-05-05 05:51 | 48.63056 | -93.31917 | 36748 ft | 518 kts | 96° |
| 2026-05-05 05:51 | 48.62191 | -93.21109 | 36744 ft | 518 kts | 97° |
| 2026-05-05 05:52 | 48.61313 | -93.10274 | 36737 ft | 518 kts | 97° |
| 2026-05-05 05:52 | 48.60426 | -92.99458 | 36747 ft | 519 kts | 97° |
| 2026-05-05 05:53 | 48.59529 | -92.88638 | 36742 ft | 519 kts | 97° |
| 2026-05-05 05:53 | 48.58623 | -92.77836 | 36755 ft | 518 kts | 97° |
| 2026-05-05 05:54 | 48.57706 | -92.67031 | 36734 ft | 518 kts | 97° |
| 2026-05-05 05:54 | 48.56785 | -92.56304 | 36738 ft | 518 kts | 97° |
| 2026-05-05 05:55 | 48.55848 | -92.45507 | 36730 ft | 519 kts | 97° |
| 2026-05-05 05:55 | 48.54900 | -92.34705 | 36725 ft | 519 kts | 98° |
| 2026-05-05 05:56 | 48.53941 | -92.23893 | 36735 ft | 519 kts | 98° |
| 2026-05-05 05:56 | 48.52976 | -92.13119 | 36860 ft | 515 kts | 98° |
| 2026-05-05 05:57 | 48.52489 | -92.07727 | 36742 ft | 519 kts | 98° |
| 2026-05-05 05:57 | 48.51999 | -92.02298 | 36573 ft | 520 kts | 98° |
| 2026-05-05 05:57 | 48.51016 | -91.91589 | 36689 ft | 518 kts | 98° |
| 2026-05-05 05:58 | 48.50015 | -91.80809 | 36710 ft | 518 kts | 98° |
| 2026-05-05 05:58 | 48.49008 | -91.70057 | 36725 ft | 519 kts | 98° |
| 2026-05-05 05:59 | 48.47989 | -91.59274 | 36702 ft | 520 kts | 98° |
| 2026-05-05 05:59 | 48.46957 | -91.48474 | 36713 ft | 520 kts | 98° |
| 2026-05-05 06:00 | 48.45922 | -91.37740 | 36698 ft | 521 kts | 99° |
| 2026-05-05 06:00 | 48.44869 | -91.26940 | 36709 ft | 521 kts | 99° |
| 2026-05-05 06:01 | 48.43804 | -91.16122 | 36699 ft | 522 kts | 99° |
| 2026-05-05 06:01 | 48.42729 | -91.05305 | 36688 ft | 522 kts | 99° |
| 2026-05-05 06:02 | 48.41642 | -90.94480 | 36684 ft | 523 kts | 99° |
| 2026-05-05 06:02 | 48.40546 | -90.83667 | 36676 ft | 523 kts | 99° |
| 2026-05-05 06:03 | 48.39437 | -90.72836 | 36673 ft | 523 kts | 99° |
| 2026-05-05 06:03 | 48.38327 | -90.62083 | 36679 ft | 523 kts | 99° |
| 2026-05-05 06:04 | 48.37198 | -90.51262 | 36667 ft | 523 kts | 99° |
| 2026-05-05 06:04 | 48.36060 | -90.40450 | 36664 ft | 523 kts | 100° |
| 2026-05-05 06:05 | 48.34911 | -90.29644 | 36666 ft | 523 kts | 100° |
| 2026-05-05 06:05 | 48.33753 | -90.18851 | 36659 ft | 523 kts | 100° |
| 2026-05-05 06:06 | 48.32582 | -90.08034 | 36650 ft | 523 kts | 100° |
| 2026-05-05 06:06 | 48.31405 | -89.97253 | 36654 ft | 522 kts | 100° |
| 2026-05-05 06:07 | 48.30218 | -89.86485 | 36663 ft | 522 kts | 101° |
| 2026-05-05 06:07 | 48.29226 | -89.77558 | 36650 ft | 521 kts | 101° |
| 2026-05-05 06:08 | 48.27829 | -89.65090 | 36632 ft | 521 kts | 101° |
| 2026-05-05 06:08 | 48.26616 | -89.54360 | 36625 ft | 521 kts | 101° |
| 2026-05-05 06:09 | 48.25601 | -89.45451 | 36614 ft | 521 kts | 101° |
| 2026-05-05 06:09 | 48.24497 | -89.34682 | 36614 ft | 522 kts | 98° |
| 2026-05-05 06:10 | 48.23590 | -89.23882 | 36616 ft | 522 kts | 98° |
| 2026-05-05 06:10 | 48.22683 | -89.13066 | 36623 ft | 522 kts | 98° |
| 2026-05-05 06:11 | 48.21731 | -89.02269 | 36622 ft | 523 kts | 99° |
| 2026-05-05 06:11 | 48.20745 | -88.91451 | 36633 ft | 523 kts | 99° |
| 2026-05-05 06:12 | 48.19745 | -88.80624 | 36633 ft | 524 kts | 99° |
| 2026-05-05 06:12 | 48.18744 | -88.69877 | 36637 ft | 524 kts | 99° |
| 2026-05-05 06:13 | 48.17727 | -88.59052 | 36633 ft | 525 kts | 99° |
| 2026-05-05 06:13 | 48.16700 | -88.48222 | 36635 ft | 525 kts | 99° |
| 2026-05-05 06:14 | 48.15662 | -88.37391 | 36635 ft | 525 kts | 99° |
| 2026-05-05 06:14 | 48.14614 | -88.26568 | 36631 ft | 525 kts | 99° |
| 2026-05-05 06:15 | 48.13561 | -88.15808 | 36635 ft | 525 kts | 99° |
| 2026-05-05 06:15 | 48.12491 | -88.04979 | 36629 ft | 526 kts | 100° |
| 2026-05-05 06:16 | 48.11410 | -87.94140 | 36631 ft | 526 kts | 100° |
| 2026-05-05 06:16 | 48.10317 | -87.83301 | 36632 ft | 526 kts | 100° |
| 2026-05-05 06:17 | 48.09216 | -87.72478 | 36627 ft | 527 kts | 100° |
| 2026-05-05 06:17 | 48.08104 | -87.61651 | 36622 ft | 527 kts | 100° |
| 2026-05-05 06:18 | 48.06984 | -87.50854 | 36617 ft | 527 kts | 100° |
| 2026-05-05 06:18 | 48.05850 | -87.40024 | 36617 ft | 527 kts | 100° |
| 2026-05-05 06:19 | 48.04704 | -87.29182 | 36621 ft | 527 kts | 101° |
| 2026-05-05 06:19 | 48.03549 | -87.18356 | 36615 ft | 528 kts | 101° |
| 2026-05-05 06:20 | 48.02383 | -87.07519 | 36610 ft | 527 kts | 101° |
| 2026-05-05 06:20 | 48.01214 | -86.96765 | 36607 ft | 527 kts | 101° |
| 2026-05-05 06:21 | 48.00027 | -86.85938 | 36604 ft | 527 kts | 101° |
| 2026-05-05 06:21 | 47.98833 | -86.75142 | 36603 ft | 527 kts | 101° |
| 2026-05-05 06:22 | 47.97629 | -86.64357 | 36600 ft | 527 kts | 101° |
| 2026-05-05 06:22 | 47.96423 | -86.53643 | 36598 ft | 526 kts | 101° |
| 2026-05-05 06:23 | 47.95200 | -86.42879 | 36594 ft | 526 kts | 101° |
| 2026-05-05 06:23 | 47.93968 | -86.32120 | 36589 ft | 525 kts | 101° |
| 2026-05-05 06:24 | 47.92726 | -86.21373 | 36590 ft | 525 kts | 102° |
| 2026-05-05 06:24 | 47.91475 | -86.10642 | 36589 ft | 525 kts | 102° |
| 2026-05-05 06:25 | 47.90217 | -85.99937 | 36589 ft | 525 kts | 102° |
| 2026-05-05 06:25 | 47.88955 | -85.89285 | 36582 ft | 524 kts | 102° |
| 2026-05-05 06:26 | 47.87676 | -85.78588 | 36580 ft | 524 kts | 102° |
| 2026-05-05 06:26 | 47.86386 | -85.67884 | 36576 ft | 524 kts | 102° |
| 2026-05-05 06:27 | 47.84433 | -85.51834 | 36565 ft | 524 kts | 102° |
| 2026-05-05 06:28 | 47.83128 | -85.41224 | 36571 ft | 524 kts | 102° |
| 2026-05-05 06:28 | 47.81802 | -85.30530 | 36567 ft | 525 kts | 103° |
| 2026-05-05 06:29 | 47.80471 | -85.19871 | 36570 ft | 524 kts | 103° |
| 2026-05-05 06:29 | 47.79126 | -85.09196 | 36569 ft | 524 kts | 103° |
| 2026-05-05 06:30 | 47.77772 | -84.98526 | 36567 ft | 524 kts | 103° |
| 2026-05-05 06:30 | 47.76420 | -84.87956 | 36569 ft | 523 kts | 103° |
| 2026-05-05 06:31 | 47.75050 | -84.77330 | 36566 ft | 522 kts | 103° |
| 2026-05-05 06:31 | 47.73674 | -84.66731 | 36558 ft | 522 kts | 104° |
| 2026-05-05 06:32 | 47.72290 | -84.56156 | 36564 ft | 521 kts | 104° |
| 2026-05-05 06:32 | 47.70904 | -84.45653 | 36557 ft | 521 kts | 104° |
| 2026-05-05 06:33 | 47.69503 | -84.35106 | 36554 ft | 521 kts | 104° |
| 2026-05-05 06:33 | 47.68089 | -84.24541 | 36551 ft | 521 kts | 104° |
| 2026-05-05 06:34 | 47.66667 | -84.13997 | 36549 ft | 521 kts | 105° |
| 2026-05-05 06:34 | 47.65235 | -84.03449 | 36543 ft | 521 kts | 105° |
| 2026-05-05 06:35 | 47.63791 | -83.92900 | 36538 ft | 522 kts | 105° |
| 2026-05-05 06:35 | 47.62336 | -83.82336 | 36535 ft | 523 kts | 105° |
| 2026-05-05 06:36 | 47.60870 | -83.71777 | 36535 ft | 524 kts | 105° |
| 2026-05-05 06:36 | 47.59400 | -83.61262 | 36530 ft | 524 kts | 106° |
| 2026-05-05 06:37 | 47.57912 | -83.50691 | 36534 ft | 525 kts | 106° |
| 2026-05-05 06:37 | 47.56411 | -83.40105 | 36531 ft | 525 kts | 106° |
| 2026-05-05 06:38 | 47.54900 | -83.29523 | 36528 ft | 525 kts | 107° |
| 2026-05-05 06:38 | 47.53379 | -83.18948 | 36534 ft | 525 kts | 107° |
| 2026-05-05 06:39 | 47.51851 | -83.08391 | 36535 ft | 525 kts | 107° |
| 2026-05-05 06:39 | 47.50320 | -82.97890 | 36541 ft | 524 kts | 107° |
| 2026-05-05 06:40 | 47.48774 | -82.87358 | 36547 ft | 524 kts | 107° |
| 2026-05-05 06:40 | 47.47216 | -82.76819 | 36543 ft | 524 kts | 107° |
| 2026-05-05 06:41 | 47.45650 | -82.66298 | 36552 ft | 524 kts | 108° |
| 2026-05-05 06:41 | 47.44074 | -82.55777 | 36551 ft | 524 kts | 108° |
| 2026-05-05 06:42 | 47.42487 | -82.45249 | 36545 ft | 524 kts | 108° |
| 2026-05-05 06:42 | 47.40889 | -82.34731 | 36544 ft | 525 kts | 108° |
| 2026-05-05 06:43 | 47.39284 | -82.24227 | 36543 ft | 525 kts | 108° |
| 2026-05-05 06:43 | 47.37674 | -82.13765 | 36535 ft | 525 kts | 108° |
| 2026-05-05 06:44 | 47.36045 | -82.03242 | 36529 ft | 526 kts | 108° |
| 2026-05-05 06:44 | 47.34407 | -81.92737 | 36527 ft | 526 kts | 108° |
| 2026-05-05 06:45 | 47.32757 | -81.82218 | 36526 ft | 526 kts | 108° |
| 2026-05-05 06:45 | 47.31096 | -81.71696 | 36525 ft | 527 kts | 108° |
| 2026-05-05 06:46 | 47.29426 | -81.61184 | 36522 ft | 527 kts | 109° |
| 2026-05-05 06:46 | 47.27744 | -81.50667 | 36524 ft | 527 kts | 109° |
| 2026-05-05 06:47 | 47.26064 | -81.40220 | 36527 ft | 528 kts | 109° |
| 2026-05-05 06:47 | 47.24359 | -81.29690 | 36527 ft | 528 kts | 109° |
| 2026-05-05 06:48 | 47.22643 | -81.19162 | 36528 ft | 529 kts | 109° |
| 2026-05-05 06:48 | 47.20917 | -81.08643 | 36524 ft | 529 kts | 109° |
| 2026-05-05 06:49 | 47.19179 | -80.98105 | 36524 ft | 530 kts | 109° |
| 2026-05-05 06:49 | 47.17427 | -80.87554 | 36541 ft | 531 kts | 109° |
| 2026-05-05 06:50 | 47.15666 | -80.77011 | 36511 ft | 532 kts | 109° |
| 2026-05-05 06:50 | 47.13893 | -80.66464 | 36517 ft | 533 kts | 109° |
| 2026-05-05 06:51 | 47.12115 | -80.55953 | 36514 ft | 533 kts | 109° |
| 2026-05-05 06:51 | 47.10317 | -80.45387 | 36505 ft | 533 kts | 109° |
| 2026-05-05 06:52 | 47.08510 | -80.34823 | 36510 ft | 533 kts | 109° |
| 2026-05-05 06:52 | 47.06701 | -80.24319 | 36505 ft | 533 kts | 109° |
| 2026-05-05 06:53 | 47.04878 | -80.13792 | 36509 ft | 533 kts | 109° |
| 2026-05-05 06:53 | 47.03043 | -80.03267 | 36508 ft | 532 kts | 109° |
| 2026-05-05 06:54 | 47.01198 | -79.92741 | 36513 ft | 532 kts | 109° |
| 2026-05-05 06:54 | 46.99345 | -79.82235 | 36518 ft | 531 kts | 109° |
| 2026-05-05 06:55 | 46.97802 | -79.73533 | 36513 ft | 531 kts | 109° |
| 2026-05-05 06:55 | 46.95936 | -79.63066 | 36512 ft | 531 kts | 110° |
| 2026-05-05 06:56 | 46.94064 | -79.52623 | 36518 ft | 530 kts | 110° |
| 2026-05-05 06:56 | 46.92193 | -79.42247 | 36521 ft | 531 kts | 110° |
| 2026-05-05 06:57 | 46.90299 | -79.31804 | 36520 ft | 530 kts | 110° |
| 2026-05-05 06:57 | 46.88396 | -79.21371 | 36523 ft | 530 kts | 110° |
| 2026-05-05 06:58 | 46.86483 | -79.10941 | 36521 ft | 530 kts | 110° |
| 2026-05-05 06:58 | 46.84572 | -79.00585 | 36526 ft | 530 kts | 110° |
| 2026-05-05 06:59 | 46.82639 | -78.90161 | 36524 ft | 530 kts | 110° |
| 2026-05-05 06:59 | 46.80700 | -78.79767 | 36525 ft | 530 kts | 110° |
| 2026-05-05 07:00 | 46.78760 | -78.69425 | 36521 ft | 530 kts | 110° |
| 2026-05-05 07:00 | 46.76791 | -78.58986 | 36526 ft | 530 kts | 110° |
| 2026-05-05 07:01 | 46.74836 | -78.48678 | 36496 ft | 530 kts | 110° |
| 2026-05-05 07:01 | 46.72858 | -78.38306 | 36511 ft | 530 kts | 110° |
| 2026-05-05 07:02 | 46.70877 | -78.27975 | 36506 ft | 529 kts | 111° |
| 2026-05-05 07:02 | 46.68887 | -78.17652 | 36502 ft | 528 kts | 111° |
| 2026-05-05 07:03 | 46.66898 | -78.07390 | 36503 ft | 528 kts | 111° |
| 2026-05-05 07:03 | 46.64893 | -77.97105 | 36501 ft | 528 kts | 111° |
| 2026-05-05 07:04 | 46.62881 | -77.86834 | 36506 ft | 528 kts | 111° |
| 2026-05-05 07:04 | 46.60858 | -77.76560 | 36498 ft | 529 kts | 111° |
| 2026-05-05 07:05 | 46.58822 | -77.66279 | 36494 ft | 529 kts | 111° |
| 2026-05-05 07:05 | 46.56778 | -77.56010 | 36498 ft | 529 kts | 111° |
| 2026-05-05 07:06 | 46.54721 | -77.45728 | 36511 ft | 530 kts | 111° |
| 2026-05-05 07:06 | 46.52650 | -77.35434 | 36498 ft | 531 kts | 111° |
| 2026-05-05 07:07 | 46.50584 | -77.25212 | 36510 ft | 531 kts | 110° |
| 2026-05-05 07:07 | 46.48491 | -77.14914 | 36501 ft | 531 kts | 110° |
| 2026-05-05 07:08 | 46.46392 | -77.04636 | 36529 ft | 532 kts | 110° |
| 2026-05-05 07:08 | 46.44276 | -76.94334 | 36510 ft | 533 kts | 110° |
| 2026-05-05 07:09 | 46.42153 | -76.84045 | 36501 ft | 532 kts | 110° |
| 2026-05-05 07:09 | 46.40024 | -76.73779 | 36520 ft | 531 kts | 110° |
| 2026-05-05 07:10 | 46.37892 | -76.63552 | 36285 ft | 533 kts | 110° |
| 2026-05-05 07:10 | 46.36820 | -76.58439 | 35525 ft | 539 kts | 111° |
| 2026-05-05 07:10 | 46.35717 | -76.53190 | 34806 ft | 538 kts | 111° |
| 2026-05-05 07:10 | 46.34638 | -76.48054 | 34015 ft | 539 kts | 111° |
| 2026-05-05 07:11 | 46.33550 | -76.42887 | 33524 ft | 534 kts | 111° |
| 2026-05-05 07:11 | 46.32470 | -76.37770 | 32969 ft | 529 kts | 111° |
| 2026-05-05 07:11 | 46.31398 | -76.32700 | 32459 ft | 524 kts | 111° |
| 2026-05-05 07:11 | 46.30333 | -76.27682 | 32001 ft | 518 kts | 111° |
| 2026-05-05 07:12 | 46.29278 | -76.22730 | 31528 ft | 513 kts | 111° |
| 2026-05-05 07:12 | 46.28230 | -76.17822 | 31052 ft | 508 kts | 111° |
| 2026-05-05 07:12 | 46.27187 | -76.12949 | 30594 ft | 504 kts | 111° |
| 2026-05-05 07:12 | 46.26155 | -76.08141 | 30142 ft | 499 kts | 112° |
| 2026-05-05 07:13 | 46.25141 | -76.03428 | 29704 ft | 495 kts | 112° |
| 2026-05-05 07:13 | 46.24121 | -75.98696 | 29189 ft | 491 kts | 112° |
| 2026-05-05 07:13 | 46.23108 | -75.94006 | 28706 ft | 487 kts | 112° |
| 2026-05-05 07:13 | 46.22102 | -75.89362 | 28245 ft | 482 kts | 112° |
| 2026-05-05 07:14 | 46.21103 | -75.84755 | 27783 ft | 478 kts | 112° |
| 2026-05-05 07:14 | 46.20108 | -75.80181 | 27328 ft | 474 kts | 112° |
| 2026-05-05 07:14 | 46.19123 | -75.75662 | 26871 ft | 470 kts | 112° |
| 2026-05-05 07:14 | 46.18142 | -75.71171 | 26413 ft | 467 kts | 112° |
| 2026-05-05 07:15 | 46.17169 | -75.66720 | 25977 ft | 463 kts | 112° |
| 2026-05-05 07:15 | 46.16202 | -75.62310 | 25527 ft | 460 kts | 112° |
| 2026-05-05 07:15 | 46.15253 | -75.57980 | 25096 ft | 457 kts | 111° |
| 2026-05-05 07:15 | 46.14510 | -75.53524 | 24700 ft | 456 kts | 103° |
| 2026-05-05 07:16 | 46.14071 | -75.49019 | 24570 ft | 452 kts | 99° |
| 2026-05-05 07:16 | 46.13736 | -75.44509 | 24593 ft | 457 kts | 98° |
| 2026-05-05 07:16 | 46.13394 | -75.39913 | 24589 ft | 463 kts | 99° |
| 2026-05-05 07:16 | 46.13016 | -75.35296 | 24587 ft | 464 kts | 100° |
| 2026-05-05 07:17 | 46.12606 | -75.30687 | 24580 ft | 462 kts | 100° |
| 2026-05-05 07:17 | 46.12174 | -75.26098 | 24574 ft | 461 kts | 101° |
| 2026-05-05 07:17 | 46.11733 | -75.21535 | 24582 ft | 459 kts | 101° |
| 2026-05-05 07:17 | 46.11290 | -75.16971 | 24585 ft | 458 kts | 101° |
| 2026-05-05 07:18 | 46.10849 | -75.12419 | 24584 ft | 457 kts | 101° |
| 2026-05-05 07:18 | 46.10416 | -75.07944 | 24575 ft | 456 kts | 101° |
| 2026-05-05 07:18 | 46.09978 | -75.03436 | 24302 ft | 453 kts | 101° |
| 2026-05-05 07:18 | 46.09538 | -74.98940 | 23872 ft | 451 kts | 101° |
| 2026-05-05 07:19 | 46.09100 | -74.94477 | 23404 ft | 449 kts | 101° |
| 2026-05-05 07:19 | 46.08662 | -74.90038 | 22915 ft | 447 kts | 101° |
| 2026-05-05 07:19 | 46.08226 | -74.85628 | 22404 ft | 443 kts | 101° |
| 2026-05-05 07:19 | 46.07791 | -74.81243 | 21972 ft | 439 kts | 101° |
| 2026-05-05 07:20 | 46.07358 | -74.76909 | 21532 ft | 436 kts | 101° |
| 2026-05-05 07:20 | 46.06928 | -74.72611 | 21076 ft | 432 kts | 101° |
| 2026-05-05 07:20 | 46.06504 | -74.68382 | 20621 ft | 430 kts | 101° |
| 2026-05-05 07:20 | 46.06079 | -74.64157 | 20097 ft | 418 kts | 101° |
| 2026-05-05 07:21 | 46.05666 | -74.60059 | 19247 ft | 412 kts | 102° |
| 2026-05-05 07:21 | 46.05252 | -74.55991 | 18292 ft | 409 kts | 102° |
| 2026-05-05 07:21 | 46.04705 | -74.52000 | 17255 ft | 400 kts | 114° |
| 2026-05-05 07:21 | 46.03421 | -74.48550 | 16264 ft | 383 kts | 134° |
| 2026-05-05 07:22 | 46.01586 | -74.45918 | 15403 ft | 365 kts | 148° |
| 2026-05-05 07:22 | 45.99612 | -74.43669 | 14532 ft | 359 kts | 148° |
| 2026-05-05 07:22 | 45.97669 | -74.41466 | 13685 ft | 354 kts | 148° |
| 2026-05-05 07:22 | 45.95786 | -74.39302 | 12803 ft | 349 kts | 147° |
| 2026-05-05 07:23 | 45.93907 | -74.37119 | 11911 ft | 344 kts | 147° |
| 2026-05-05 07:23 | 45.92082 | -74.34988 | 11391 ft | 329 kts | 147° |
| 2026-05-05 07:23 | 45.90357 | -74.32968 | 10975 ft | 313 kts | 147° |
| 2026-05-05 07:23 | 45.88704 | -74.31040 | 10620 ft | 300 kts | 148° |
| 2026-05-05 07:24 | 45.87099 | -74.29176 | 10300 ft | 295 kts | 148° |
| 2026-05-05 07:24 | 45.85534 | -74.27355 | 10180 ft | 282 kts | 148° |
| 2026-05-05 07:24 | 45.84053 | -74.25628 | 10040 ft | 265 kts | 149° |
| 2026-05-05 07:24 | 45.82630 | -74.23981 | 9943 ft | 269 kts | 149° |
| 2026-05-05 07:25 | 45.81127 | -74.22253 | 9875 ft | 282 kts | 148° |
| 2026-05-05 07:25 | 45.79606 | -74.20491 | 9740 ft | 282 kts | 148° |
| 2026-05-05 07:25 | 45.78113 | -74.18752 | 9529 ft | 271 kts | 148° |
| 2026-05-05 07:25 | 45.76668 | -74.17073 | 9102 ft | 268 kts | 149° |
| 2026-05-05 07:26 | 45.75249 | -74.15318 | 8657 ft | 273 kts | 138° |
| 2026-05-05 07:26 | 45.74171 | -74.12995 | 8175 ft | 286 kts | 125° |
| 2026-05-05 07:26 | 45.73261 | -74.10467 | 8005 ft | 283 kts | 123° |
| 2026-05-05 07:26 | 45.72367 | -74.07959 | 8013 ft | 285 kts | 124° |
| 2026-05-05 07:27 | 45.71427 | -74.05420 | 8013 ft | 292 kts | 125° |
| 2026-05-05 07:27 | 45.70450 | -74.02845 | 7795 ft | 296 kts | 125° |
| 2026-05-05 07:27 | 45.69461 | -74.00258 | 7501 ft | 296 kts | 126° |
| 2026-05-05 07:27 | 45.68473 | -73.97679 | 7232 ft | 294 kts | 126° |
| 2026-05-05 07:28 | 45.67504 | -73.95155 | 6957 ft | 292 kts | 126° |
| 2026-05-05 07:28 | 45.66525 | -73.92614 | 6665 ft | 291 kts | 126° |
| 2026-05-05 07:28 | 45.65552 | -73.90089 | 6361 ft | 289 kts | 126° |
| 2026-05-05 07:28 | 45.64579 | -73.87565 | 6077 ft | 288 kts | 126° |
| 2026-05-05 07:29 | 45.63612 | -73.85059 | 5766 ft | 288 kts | 126° |
| 2026-05-05 07:29 | 45.62656 | -73.82542 | 5449 ft | 286 kts | 122° |
| 2026-05-05 07:29 | 45.62185 | -73.79761 | 5153 ft | 294 kts | 97° |
| 2026-05-05 07:29 | 45.62230 | -73.76839 | 4883 ft | 295 kts | 90° |
| 2026-05-05 07:30 | 45.62381 | -73.73917 | 4613 ft | 293 kts | 90° |
| 2026-05-05 07:30 | 45.63047 | -73.68308 | 4201 ft | 286 kts | 78° |
| 2026-05-05 07:30 | 45.63562 | -73.65583 | 4004 ft | 281 kts | 77° |
| 2026-05-05 07:31 | 45.64093 | -73.62935 | 3882 ft | 271 kts | 72° |
| 2026-05-05 07:31 | 45.64810 | -73.60509 | 3932 ft | 261 kts | 67° |
| 2026-05-05 07:31 | 45.65453 | -73.58118 | 3967 ft | 255 kts | 86° |
| 2026-05-05 07:31 | 45.65289 | -73.55670 | 4053 ft | 244 kts | 121° |
| 2026-05-05 07:32 | 45.64315 | -73.53845 | 4065 ft | 222 kts | 155° |
| 2026-05-05 07:32 | 45.62977 | -73.53202 | 4003 ft | 188 kts | 191° |
| 2026-05-05 07:32 | 45.61870 | -73.53823 | 3831 ft | 165 kts | 228° |
| 2026-05-05 07:32 | 45.61275 | -73.55170 | 3669 ft | 161 kts | 238° |
| 2026-05-05 07:33 | 45.60659 | -73.56525 | 3453 ft | 163 kts | 233° |
| 2026-05-05 07:33 | 45.59966 | -73.57758 | 3229 ft | 159 kts | 230° |
| 2026-05-05 07:33 | 45.59261 | -73.58938 | 3040 ft | 154 kts | 230° |
| 2026-05-05 07:33 | 45.58551 | -73.60051 | 2837 ft | 151 kts | 227° |
| 2026-05-05 07:34 | 45.57790 | -73.61124 | 2641 ft | 156 kts | 225° |
| 2026-05-05 07:34 | 45.56996 | -73.62192 | 2425 ft | 157 kts | 224° |
| 2026-05-05 07:34 | 45.56205 | -73.63239 | 2226 ft | 154 kts | 223° |
| 2026-05-05 07:34 | 45.55430 | -73.64261 | 2010 ft | 149 kts | 223° |
| 2026-05-05 07:35 | 45.54676 | -73.65252 | 1817 ft | 142 kts | 222° |
| 2026-05-05 07:35 | 45.53983 | -73.66164 | 1646 ft | 129 kts | 221° |
| 2026-05-05 07:35 | 45.53350 | -73.66998 | 1481 ft | 124 kts | 220° |
| 2026-05-05 07:35 | 45.52709 | -73.67842 | 1309 ft | 126 kts | 220° |
| 2026-05-05 07:36 | 45.52062 | -73.68689 | 1122 ft | 126 kts | 222° |
| 2026-05-05 07:36 | 45.51405 | -73.69554 | 942 ft | 134 kts | 221° |
| 2026-05-05 07:36 | 45.50691 | -73.70484 | 743 ft | 143 kts | 221° |
| 2026-05-05 07:36 | 45.49955 | -73.71461 | 632 ft | 145 kts | 221° |
| 2026-05-05 07:37 | 45.49217 | -73.72454 | 458 ft | 147 kts | 220° |
| 2026-05-05 07:37 | 45.48463 | -73.73434 | 213 ft | 146 kts | 218° |
| 2026-05-05 07:37 | 45.47735 | -73.74369 | 117 ft | 131 kts | 222° |
| 2026-05-05 07:37 | 45.47189 | -73.75082 | 113 ft | 81 kts | 223° |
| 2026-05-05 07:38 | 45.46862 | -73.75497 | 112 ft | 49 kts | 216° |
| 2026-05-05 07:38 | 45.46672 | -73.75606 | 114 ft | 14 kts | 192° |
| 2026-05-05 07:38 | 45.46578 | -73.75636 | 114 ft | 14 kts | 193° |
| 2026-05-05 07:38 | 45.46484 | -73.75668 | 114 ft | 14 kts | 193° |
| 2026-05-05 07:39 | 45.46386 | -73.75700 | 112 ft | 15 kts | 192° |
| 2026-05-05 07:39 | 45.46278 | -73.75731 | 110 ft | 16 kts | 186° |
| 2026-05-05 07:39 | 45.46166 | -73.75731 | 110 ft | 16 kts | 180° |
| 2026-05-05 07:39 | 45.46080 | -73.75727 | 109 ft | 11 kts | 185° |
| 2026-05-05 07:40 | 45.46003 | -73.75735 | 109 ft | 11 kts | 177° |
| 2026-05-05 07:40 | 45.45983 | -73.75734 | 108 ft | 0 kts | 177° |